createdAt,value
2018-09-29T00:00:06.803Z,64.38
2018-09-29T00:02:35.420Z,63.49
2018-09-29T00:05:05.656Z,63.50
2018-09-29T00:07:35.109Z,62.87
2018-09-29T00:10:03.768Z,62.16
2018-09-29T00:12:32.355Z,62.40
2018-09-29T00:15:00.894Z,62.75
2018-09-29T00:17:29.576Z,68.42
2018-09-29T00:19:58.225Z,64.57
2018-09-29T00:22:26.703Z,62.90
2018-09-29T00:24:55.308Z,64.45
2018-09-29T00:27:23.853Z,64.38
2018-09-29T00:29:52.454Z,64.64
2018-09-29T00:32:21.111Z,64.12
2018-09-29T00:34:50.578Z,63.72
2018-09-29T00:37:19.835Z,64.03
2018-09-29T00:39:48.504Z,63.60
2018-09-29T00:42:17.133Z,62.72
2018-09-29T00:44:46.459Z,62.54
2018-09-29T00:47:15.083Z,62.58
2018-09-29T00:49:44.158Z,63.68
2018-09-29T00:52:13.021Z,65.46
2018-09-29T00:54:41.819Z,66.41
2018-09-29T00:57:10.307Z,62.57
2018-09-29T00:59:38.929Z,64.37
2018-09-29T01:02:07.431Z,62.95
2018-09-29T01:04:36.028Z,63.92
2018-09-29T01:07:04.625Z,64.75
2018-09-29T01:09:33.199Z,65.00
2018-09-29T01:12:01.818Z,64.32
2018-09-29T01:14:30.338Z,63.83
2018-09-29T01:16:58.986Z,64.30
2018-09-29T01:19:27.589Z,64.31
2018-09-29T01:21:56.163Z,63.66
2018-09-29T01:24:24.970Z,63.05
2018-09-29T01:26:53.709Z,63.17
2018-09-29T01:32:03.064Z,64.29
2018-09-29T01:34:31.661Z,63.80
2018-09-29T01:37:00.305Z,63.45
2018-09-29T01:39:28.950Z,64.42
2018-09-29T01:41:57.583Z,65.81
2018-09-29T01:44:26.124Z,65.00
2018-09-29T01:46:54.712Z,63.88
2018-09-29T01:49:23.279Z,62.88
2018-09-29T01:51:51.908Z,62.00
2018-09-29T01:54:20.474Z,61.53
2018-09-29T01:56:49.679Z,61.26
2018-09-29T01:59:18.245Z,61.07
2018-09-29T02:01:47.067Z,61.19
2018-09-29T02:04:16.304Z,63.70
2018-09-29T02:06:45.033Z,64.28
2018-09-29T02:09:13.578Z,61.99
2018-09-29T02:11:42.165Z,62.55
2018-09-29T02:14:10.818Z,63.09
2018-09-29T02:16:39.535Z,64.48
2018-09-29T02:19:08.139Z,64.94
2018-09-29T02:21:36.847Z,65.09
2018-09-29T02:24:05.447Z,64.14
2018-09-29T02:26:34.484Z,64.15
2018-09-29T02:29:03.182Z,64.26
2018-09-29T02:31:32.754Z,63.89
2018-09-29T02:34:01.465Z,64.86
2018-09-29T02:36:30.833Z,65.81
2018-09-29T02:38:59.478Z,66.78
2018-09-29T02:41:28.165Z,67.03
2018-09-29T02:43:56.747Z,65.32
2018-09-29T02:46:26.957Z,64.75
2018-09-29T02:48:56.657Z,65.55
2018-09-29T02:51:25.242Z,65.39
2018-09-29T02:53:53.838Z,65.21
2018-09-29T02:56:22.429Z,64.80
2018-09-29T02:58:51.168Z,63.36
2018-09-29T03:01:19.850Z,62.89
2018-09-29T03:03:48.572Z,63.78
2018-09-29T03:06:17.777Z,63.36
2018-09-29T03:08:46.874Z,64.03
2018-09-29T03:11:16.248Z,64.51
2018-09-29T03:13:45.003Z,65.07
2018-09-29T03:16:14.337Z,67.60
2018-09-29T03:18:43.030Z,66.00
2018-09-29T03:21:11.649Z,65.40
2018-09-29T03:23:40.335Z,65.63
2018-09-29T03:26:08.953Z,64.98
2018-09-29T03:28:38.246Z,65.55
2018-09-29T03:31:07.269Z,65.23
2018-09-29T03:33:35.827Z,64.07
2018-09-29T03:36:04.468Z,63.42
2018-09-29T03:38:33.849Z,63.69
2018-09-29T03:41:02.453Z,64.50
2018-09-29T03:43:31.058Z,64.05
2018-09-29T03:45:59.693Z,63.58
2018-09-29T03:48:28.226Z,63.82
2018-09-29T03:50:56.905Z,66.50
2018-09-29T03:53:25.692Z,67.64
2018-09-29T03:55:54.144Z,63.88
2018-09-29T03:58:22.694Z,65.75
2018-09-29T04:00:51.232Z,66.53
2018-09-29T04:03:19.747Z,66.20
2018-09-29T04:05:49.743Z,66.08
2018-09-29T04:08:18.337Z,65.25
2018-09-29T04:10:48.049Z,64.67
2018-09-29T04:13:16.618Z,63.72
2018-09-29T04:15:45.327Z,63.51
2018-09-29T04:18:13.928Z,63.97
2018-09-29T04:20:42.618Z,63.99
2018-09-29T04:23:11.303Z,63.51
2018-09-29T04:25:39.888Z,63.71
2018-09-29T04:28:08.984Z,68.23
2018-09-29T04:30:37.993Z,66.65
2018-09-29T04:33:07.390Z,66.24
2018-09-29T04:35:36.002Z,65.26
2018-09-29T04:38:04.844Z,66.22
2018-09-29T04:40:33.423Z,65.28
2018-09-29T04:43:02.998Z,66.11
2018-09-29T04:45:31.579Z,64.63
2018-09-29T04:48:00.244Z,64.68
2018-09-29T04:50:28.814Z,64.37
2018-09-29T04:52:57.418Z,64.41
2018-09-29T04:55:27.111Z,64.78
2018-09-29T04:57:56.312Z,64.79
2018-09-29T05:00:24.899Z,66.31
2018-09-29T05:02:53.532Z,69.22
2018-09-29T05:05:22.169Z,68.51
2018-09-29T05:07:50.907Z,67.23
2018-09-29T05:10:19.663Z,66.85
2018-09-29T05:12:48.257Z,66.59
2018-09-29T05:15:16.931Z,66.03
2018-09-29T05:17:45.554Z,65.57
2018-09-29T05:20:14.133Z,65.09
2018-09-29T05:22:42.761Z,64.61
2018-09-29T05:25:11.667Z,63.87
2018-09-29T05:27:40.883Z,63.78
2018-09-29T05:30:10.429Z,64.22
2018-09-29T05:32:38.949Z,64.15
2018-09-29T05:35:08.642Z,66.08
2018-09-29T05:37:37.951Z,67.55
2018-09-29T05:40:06.759Z,70.97
2018-09-29T05:42:35.467Z,65.58
2018-09-29T05:45:04.146Z,64.58
2018-09-29T05:47:33.313Z,66.67
2018-09-29T05:50:01.966Z,66.66
2018-09-29T05:52:30.562Z,66.75
2018-09-29T05:54:59.319Z,66.71
2018-09-29T05:57:27.942Z,66.44
2018-09-29T05:59:56.702Z,65.13
2018-09-29T06:02:25.369Z,64.17
2018-09-29T06:04:53.909Z,64.98
2018-09-29T06:07:22.640Z,65.31
2018-09-29T06:09:51.929Z,65.93
2018-09-29T06:12:20.620Z,66.61
2018-09-29T06:14:49.496Z,71.18
2018-09-29T06:17:18.088Z,66.41
2018-09-29T06:19:46.823Z,64.82
2018-09-29T06:22:15.554Z,65.45
2018-09-29T06:24:44.320Z,67.30
2018-09-29T06:27:12.931Z,67.59
2018-09-29T06:29:41.488Z,67.56
2018-09-29T06:32:10.108Z,66.86
2018-09-29T06:34:39.724Z,66.04
2018-09-29T06:37:09.578Z,65.83
2018-09-29T06:39:39.154Z,65.49
2018-09-29T06:42:07.684Z,65.05
2018-09-29T06:44:36.398Z,64.54
2018-09-29T06:47:05.032Z,63.96
2018-09-29T06:49:33.783Z,66.75
2018-09-29T06:52:03.092Z,67.33
2018-09-29T06:54:32.316Z,64.50
2018-09-29T06:57:02.033Z,64.96
2018-09-29T06:59:30.730Z,65.07
2018-09-29T07:02:00.889Z,66.13
2018-09-29T07:04:29.742Z,65.52
2018-09-29T07:06:58.322Z,64.08
2018-09-29T07:09:26.898Z,63.25
2018-09-29T07:11:55.504Z,62.93
2018-09-29T07:14:24.673Z,63.07
2018-09-29T07:16:53.365Z,62.94
2018-09-29T07:19:22.905Z,62.95
2018-09-29T07:21:52.121Z,62.28
2018-09-29T07:24:21.367Z,62.77
2018-09-29T07:26:50.647Z,65.56
2018-09-29T07:29:19.183Z,62.42
2018-09-29T07:31:48.665Z,62.59
2018-09-29T07:34:17.438Z,61.49
2018-09-29T07:36:46.542Z,61.15
2018-09-29T07:39:15.925Z,60.90
2018-09-29T07:41:44.477Z,61.99
2018-09-29T07:44:13.021Z,62.02
2018-09-29T07:46:42.683Z,61.11
2018-09-29T07:49:11.298Z,59.81
2018-09-29T07:51:40.598Z,59.90
2018-09-29T07:54:09.822Z,60.61
2018-09-29T07:56:38.507Z,62.89
2018-09-29T07:59:07.256Z,62.00
2018-09-29T08:01:35.777Z,64.57
2018-09-29T08:04:04.692Z,59.90
2018-09-29T08:06:33.445Z,59.56
2018-09-29T08:09:01.944Z,60.21
2018-09-29T08:11:31.169Z,59.01
2018-09-29T08:14:00.023Z,58.63
2018-09-29T08:16:29.342Z,57.93
2018-09-29T08:18:58.013Z,56.65
2018-09-29T08:21:26.617Z,56.90
2018-09-29T08:23:55.322Z,56.42
2018-09-29T08:26:23.983Z,56.94
2018-09-29T08:28:52.653Z,57.46
2018-09-29T08:31:21.289Z,56.45
2018-09-29T08:33:49.978Z,54.30
2018-09-29T08:36:19.258Z,54.11
2018-09-29T08:38:47.975Z,53.36
2018-09-29T08:41:16.628Z,53.21
2018-09-29T08:43:45.229Z,55.18
2018-09-29T08:46:13.976Z,51.72
2018-09-29T08:48:42.558Z,50.08
2018-09-29T08:51:11.232Z,49.72
2018-09-29T08:53:40.655Z,50.17
2018-09-29T08:56:09.179Z,50.78
2018-09-29T08:58:37.764Z,49.88
2018-09-29T09:01:06.504Z,49.41
2018-09-29T09:03:35.493Z,49.56
2018-09-29T09:06:04.123Z,49.75
2018-09-29T09:08:33.298Z,48.42
2018-09-29T09:11:01.869Z,47.39
2018-09-29T09:13:30.532Z,47.35
2018-09-29T09:15:59.182Z,46.82
2018-09-29T09:18:27.798Z,46.47
2018-09-29T09:20:56.338Z,48.05
2018-09-29T09:23:25.033Z,46.55
2018-09-29T09:25:53.579Z,45.65
2018-09-29T09:28:22.844Z,44.86
2018-09-29T09:30:51.462Z,45.41
2018-09-29T09:33:20.063Z,44.63
2018-09-29T09:35:48.657Z,44.44
2018-09-29T09:38:17.392Z,42.94
2018-09-29T09:40:46.649Z,42.60
2018-09-29T09:43:15.313Z,41.06
2018-09-29T09:45:43.952Z,41.94
2018-09-29T09:48:13.108Z,41.77
2018-09-29T09:50:42.301Z,41.33
2018-09-29T09:53:10.914Z,42.30
2018-09-29T09:55:39.768Z,43.04
2018-09-29T09:58:08.348Z,41.84
2018-09-29T10:00:43.896Z,42.35
2018-09-29T10:03:17.706Z,42.00
2018-09-29T10:05:46.277Z,40.82
2018-09-29T10:08:14.959Z,41.00
2018-09-29T10:13:18.867Z,39.50
2018-09-29T10:15:47.793Z,39.65
2018-09-29T10:18:17.112Z,40.35
2018-09-29T10:20:46.511Z,40.49
2018-09-29T10:23:15.194Z,38.42
2018-09-29T10:25:44.090Z,38.25
2018-09-29T10:28:12.707Z,39.88
2018-09-29T10:30:41.332Z,38.08
2018-09-29T10:33:34.460Z,38.44
2018-09-29T10:36:03.168Z,37.84
2018-09-29T10:38:31.803Z,38.11
2018-09-29T10:41:01.178Z,38.45
2018-09-29T10:43:29.819Z,37.85
2018-09-29T10:45:58.936Z,37.55
2018-09-29T10:48:28.278Z,38.46
2018-09-29T10:50:56.952Z,38.21
2018-09-29T10:53:25.887Z,37.08
2018-09-29T10:55:54.522Z,38.10
2018-09-29T10:58:23.038Z,38.04
2018-09-29T11:00:52.247Z,37.80
2018-09-29T11:03:21.198Z,37.20
2018-09-29T11:05:50.401Z,37.72
2018-09-29T11:08:19.162Z,37.57
2018-09-29T11:10:47.826Z,38.79
2018-09-29T11:13:17.268Z,37.73
2018-09-29T11:15:45.946Z,37.83
2018-09-29T11:25:10.138Z,37.49
2018-09-29T11:27:38.791Z,36.22
2018-09-29T11:30:07.659Z,36.74
2018-09-29T11:32:36.317Z,37.07
2018-09-29T11:35:05.381Z,37.54
2018-09-29T11:37:34.098Z,36.68
2018-09-29T11:40:02.818Z,37.15
2018-09-29T11:42:31.386Z,36.94
2018-09-29T11:45:00.081Z,36.80
2018-09-29T11:47:28.753Z,36.24
2018-09-29T11:49:57.279Z,36.94
2018-09-29T11:52:25.829Z,37.55
2018-09-29T11:54:54.605Z,36.57
2018-09-29T11:57:23.345Z,36.80
2018-09-29T11:59:52.170Z,36.72
2018-09-29T12:02:21.597Z,36.67
2018-09-29T12:04:50.390Z,36.42
2018-09-29T12:07:18.997Z,36.44
2018-09-29T12:09:48.551Z,36.41
2018-09-29T12:12:17.132Z,36.34
2018-09-29T12:14:46.203Z,35.68
2018-09-29T12:17:14.916Z,36.19
2018-09-29T12:19:44.601Z,35.50
2018-09-29T12:22:13.911Z,35.53
2018-09-29T12:24:42.596Z,36.84
2018-09-29T12:27:11.142Z,37.52
2018-09-29T12:29:39.836Z,36.09
2018-09-29T12:32:08.480Z,36.54
2018-09-29T12:34:37.783Z,35.51
2018-09-29T12:37:06.729Z,36.01
2018-09-29T12:39:35.507Z,34.96
2018-09-29T12:42:04.046Z,35.49
2018-09-29T12:44:33.507Z,34.58
2018-09-29T12:47:02.023Z,35.06
2018-09-29T12:49:30.761Z,35.12
2018-09-29T12:51:59.418Z,35.40
2018-09-29T12:54:28.079Z,35.54
2018-09-29T12:56:56.822Z,36.06
2018-09-29T12:59:25.478Z,36.04
2018-09-29T13:01:53.992Z,35.83
2018-09-29T13:04:22.601Z,35.55
2018-09-29T13:06:51.185Z,35.95
2018-09-29T13:09:19.775Z,36.22
2018-09-29T13:11:48.999Z,35.21
2018-09-29T13:14:17.657Z,34.85
2018-09-29T13:16:47.164Z,34.45
2018-09-29T13:19:15.728Z,34.46
2018-09-29T13:21:45.147Z,33.32
2018-09-29T13:24:13.737Z,33.98
2018-09-29T13:26:42.306Z,34.26
2018-09-29T13:29:11.006Z,34.84
2018-09-29T13:31:39.593Z,35.02
2018-09-29T13:34:08.962Z,34.08
2018-09-29T13:36:37.692Z,35.08
2018-09-29T13:39:07.407Z,34.71
2018-09-29T13:41:35.964Z,35.57
2018-09-29T13:44:04.591Z,34.95
2018-09-29T13:46:33.286Z,35.15
2018-09-29T13:49:02.046Z,35.35
2018-09-29T13:51:30.690Z,35.03
2018-09-29T13:53:59.360Z,34.24
2018-09-29T13:56:28.851Z,35.88
2018-09-29T13:58:57.390Z,35.76
2018-09-29T14:01:26.083Z,34.55
2018-09-29T14:03:55.347Z,33.84
2018-09-29T14:06:24.032Z,34.24
2018-09-29T14:08:53.297Z,34.28
2018-09-29T14:11:22.552Z,34.39
2018-09-29T14:13:51.300Z,35.21
2018-09-29T14:16:20.033Z,35.12
2018-09-29T14:18:49.576Z,35.04
2018-09-29T14:21:19.010Z,35.28
2018-09-29T14:23:47.797Z,34.38
2018-09-29T14:26:16.567Z,34.66
2018-09-29T14:28:45.152Z,35.33
2018-09-29T14:31:13.835Z,35.20
2018-09-29T14:33:42.424Z,35.09
2018-09-29T14:36:11.028Z,35.03
2018-09-29T14:38:39.650Z,35.24
2018-09-29T14:41:09.106Z,35.13
2018-09-29T14:43:37.751Z,35.39
2018-09-29T14:46:06.483Z,36.12
2018-09-29T14:48:35.837Z,35.31
2018-09-29T14:51:04.437Z,34.02
2018-09-29T14:53:33.516Z,35.37
2018-09-29T14:56:02.203Z,35.34
2018-09-29T14:58:31.160Z,35.26
2018-09-29T15:01:00.362Z,35.10
2018-09-29T15:03:29.779Z,35.52
2018-09-29T15:05:58.287Z,35.49
2018-09-29T15:08:26.945Z,34.63
2018-09-29T15:10:55.497Z,35.02
2018-09-29T15:13:24.492Z,36.55
2018-09-29T15:15:53.028Z,36.20
2018-09-29T15:18:22.283Z,34.92
2018-09-29T15:20:50.952Z,35.17
2018-09-29T15:23:20.138Z,35.20
2018-09-29T15:25:49.901Z,35.92
2018-09-29T15:28:19.147Z,35.93
2018-09-29T15:30:50.526Z,36.69
2018-09-29T15:33:19.358Z,35.84
2018-09-29T15:35:47.996Z,36.84
2018-09-29T15:38:17.203Z,36.82
2018-09-29T15:40:46.452Z,36.18
2018-09-29T15:43:15.142Z,36.00
2018-09-29T15:45:44.495Z,36.53
2018-09-29T15:48:13.716Z,36.82
2018-09-29T15:50:42.389Z,37.05
2018-09-29T15:53:11.141Z,38.42
2018-09-29T15:55:41.984Z,38.93
2018-09-29T15:58:11.061Z,37.39
2018-09-29T16:00:40.524Z,37.59
2018-09-29T16:03:09.203Z,39.11
2018-09-29T16:05:37.806Z,40.64
2018-09-29T16:08:06.477Z,40.98
2018-09-29T16:10:35.203Z,39.69
2018-09-29T16:13:03.772Z,40.06
2018-09-29T16:15:32.498Z,39.84
2018-09-29T16:18:01.755Z,40.99
2018-09-29T16:20:30.472Z,42.28
2018-09-29T16:22:59.140Z,42.79
2018-09-29T16:25:27.705Z,42.22
2018-09-29T16:27:57.042Z,42.77
2018-09-29T16:30:25.736Z,43.80
2018-09-29T16:32:54.441Z,44.40
2018-09-29T16:35:23.778Z,44.41
2018-09-29T16:37:52.662Z,44.86
2018-09-29T16:40:21.285Z,45.55
2018-09-29T16:42:49.868Z,46.27
2018-09-29T16:45:19.392Z,46.65
2018-09-29T16:47:47.955Z,47.46
2018-09-29T16:50:16.622Z,51.91
2018-09-29T16:52:46.082Z,48.97
2018-09-29T16:55:14.797Z,48.35
2018-09-29T16:57:43.582Z,48.43
2018-09-29T17:00:12.289Z,49.63
2018-09-29T17:02:40.971Z,48.98
2018-09-29T17:05:10.326Z,49.35
2018-09-29T17:07:38.921Z,49.93
2018-09-29T17:10:07.678Z,49.78
2018-09-29T17:12:37.085Z,50.62
2018-09-29T17:15:05.913Z,50.54
2018-09-29T17:17:35.672Z,50.49
2018-09-29T17:20:04.291Z,51.38
2018-09-29T17:22:32.837Z,52.83
2018-09-29T17:25:01.491Z,54.22
2018-09-29T17:27:32.363Z,61.16
2018-09-29T17:30:01.057Z,55.14
2018-09-29T17:32:29.862Z,53.24
2018-09-29T17:34:59.114Z,53.63
2018-09-29T17:37:27.762Z,53.42
2018-09-29T17:39:57.180Z,54.58
2018-09-29T17:42:25.851Z,54.31
2018-09-29T17:44:55.065Z,54.67
2018-09-29T17:47:24.413Z,55.10
2018-09-29T17:49:53.081Z,55.72
2018-09-29T17:52:21.905Z,55.64
2018-09-29T17:54:51.921Z,56.04
2018-09-29T17:57:20.546Z,55.45
2018-09-29T17:59:49.573Z,56.43
2018-09-29T18:02:18.307Z,59.44
2018-09-29T18:04:46.867Z,57.52
2018-09-29T18:07:15.397Z,55.21
2018-09-29T18:09:43.970Z,55.45
2018-09-29T18:12:12.545Z,55.81
2018-09-29T18:14:41.172Z,55.88
2018-09-29T18:17:09.766Z,55.61
2018-09-29T18:19:38.311Z,56.31
2018-09-29T18:22:07.110Z,56.77
2018-09-29T18:24:35.677Z,57.84
2018-09-29T18:27:04.240Z,58.05
2018-09-29T18:29:32.844Z,57.73
2018-09-29T18:32:02.160Z,56.94
2018-09-29T18:34:30.766Z,55.99
2018-09-29T18:36:59.425Z,58.62
2018-09-29T18:39:28.008Z,61.20
2018-09-29T18:41:56.591Z,56.75
2018-09-29T18:44:25.191Z,55.75
2018-09-29T18:46:53.762Z,55.54
2018-09-29T18:49:22.380Z,56.68
2018-09-29T18:51:50.942Z,57.20
2018-09-29T18:54:19.771Z,57.98
2018-09-29T18:56:48.393Z,58.05
2018-09-29T18:59:17.044Z,59.12
2018-09-29T19:01:45.614Z,58.71
2018-09-29T19:04:14.312Z,58.28
2018-09-29T19:06:42.843Z,57.88
2018-09-29T19:09:12.936Z,57.32
2018-09-29T19:11:42.421Z,59.06
2018-09-29T19:14:11.021Z,62.86
2018-09-29T19:16:39.615Z,58.50
2018-09-29T19:19:08.208Z,57.25
2018-09-29T19:21:36.791Z,57.71
2018-09-29T19:24:05.476Z,57.78
2018-09-29T19:26:34.064Z,58.30
2018-09-29T19:29:02.996Z,58.71
2018-09-29T19:31:31.607Z,59.43
2018-09-29T19:34:00.216Z,60.38
2018-09-29T19:36:28.780Z,60.92
2018-09-29T19:38:57.361Z,59.55
2018-09-29T19:41:25.910Z,58.76
2018-09-29T19:43:54.471Z,59.38
2018-09-29T19:46:23.151Z,60.17
2018-09-29T19:48:51.790Z,62.54
2018-09-29T19:51:20.456Z,61.15
2018-09-29T19:53:49.892Z,59.92
2018-09-29T19:56:18.477Z,58.72
2018-09-29T19:58:47.052Z,58.35
2018-09-29T20:01:16.474Z,58.83
2018-09-29T20:03:45.120Z,59.99
2018-09-29T20:06:13.676Z,60.22
2018-09-29T20:08:42.324Z,61.56
2018-09-29T20:11:10.917Z,61.35
2018-09-29T20:13:39.637Z,60.32
2018-09-29T20:16:08.369Z,59.44
2018-09-29T20:18:36.915Z,58.52
2018-09-29T20:21:05.481Z,59.85
2018-09-29T20:23:34.069Z,62.36
2018-09-29T20:26:02.714Z,63.25
2018-09-29T20:28:31.391Z,60.42
2018-09-29T20:31:00.210Z,59.65
2018-09-29T20:33:28.766Z,59.85
2018-09-29T20:35:57.816Z,60.88
2018-09-29T20:38:26.594Z,61.76
2018-09-29T20:40:55.345Z,61.71
2018-09-29T20:43:24.095Z,61.86
2018-09-29T20:45:52.705Z,61.66
2018-09-29T20:48:21.310Z,60.77
2018-09-29T20:50:50.338Z,60.58
2018-09-29T20:53:18.905Z,60.64
2018-09-29T20:55:47.500Z,59.99
2018-09-29T20:58:16.087Z,61.59
2018-09-29T21:00:44.652Z,66.53
2018-09-29T21:03:13.351Z,61.67
2018-09-29T21:05:41.930Z,59.19
2018-09-29T21:08:10.518Z,60.01
2018-09-29T21:10:39.067Z,61.39
2018-09-29T21:13:08.486Z,61.59
2018-09-29T21:15:37.235Z,61.79
2018-09-29T21:18:05.822Z,61.92
2018-09-29T21:20:34.359Z,60.77
2018-09-29T21:23:02.895Z,60.41
2018-09-29T21:25:31.520Z,60.33
2018-09-29T21:28:00.057Z,59.14
2018-09-29T21:30:28.632Z,59.03
2018-09-29T21:32:57.287Z,58.56
2018-09-29T21:35:25.931Z,64.75
2018-09-29T21:37:54.473Z,61.35
2018-09-29T21:40:23.109Z,60.80
2018-09-29T21:42:51.701Z,60.01
2018-09-29T21:45:20.335Z,59.79
2018-09-29T21:47:48.985Z,60.32
2018-09-29T21:50:17.605Z,61.74
2018-09-29T21:52:46.160Z,62.04
2018-09-29T21:55:14.761Z,61.79
2018-09-29T21:57:43.319Z,61.16
2018-09-29T22:00:12.035Z,60.48
2018-09-29T22:02:40.630Z,60.00
2018-09-29T22:05:09.251Z,59.79
2018-09-29T22:07:37.886Z,61.58
2018-09-29T22:10:06.479Z,63.59
2018-09-29T22:12:35.001Z,64.32
2018-09-29T22:15:03.630Z,61.92
2018-09-29T22:17:32.215Z,61.77
2018-09-29T22:20:00.822Z,61.09
2018-09-29T22:22:29.395Z,61.71
2018-09-29T22:24:57.928Z,62.40
2018-09-29T22:27:26.445Z,62.46
2018-09-29T22:29:55.046Z,62.06
2018-09-29T22:32:23.591Z,61.48
2018-09-29T22:34:52.172Z,61.23
2018-09-29T22:37:20.739Z,61.94
2018-09-29T22:39:49.341Z,61.51
2018-09-29T22:42:17.920Z,61.37
2018-09-29T22:44:46.431Z,62.51
2018-09-29T22:47:15.027Z,66.86
2018-09-29T22:49:43.587Z,64.84
2018-09-29T22:52:12.252Z,63.43
2018-09-29T22:54:40.830Z,63.22
2018-09-29T22:57:09.391Z,62.71
2018-09-29T22:59:37.995Z,63.95
2018-09-29T23:02:07.082Z,62.78
2018-09-29T23:04:35.661Z,63.73
2018-09-29T23:07:04.274Z,62.99
2018-09-29T23:09:32.890Z,62.22
2018-09-29T23:12:01.470Z,62.62
2018-09-29T23:14:31.076Z,63.56
2018-09-29T23:16:59.596Z,62.47
2018-09-29T23:19:28.245Z,62.65
2018-09-29T23:21:56.806Z,63.70
2018-09-29T23:24:25.985Z,62.73
2018-09-29T23:26:54.552Z,62.56
2018-09-29T23:29:23.050Z,62.45
2018-09-29T23:31:51.659Z,62.85
2018-09-29T23:34:20.520Z,63.60
2018-09-29T23:36:49.168Z,63.91
2018-09-29T23:39:17.770Z,63.79
2018-09-29T23:41:46.404Z,64.22
2018-09-29T23:44:14.959Z,63.83
2018-09-29T23:46:43.556Z,63.22
2018-09-29T23:49:12.590Z,62.63
2018-09-29T23:51:41.171Z,62.52
2018-09-29T23:54:09.688Z,61.77
2018-09-29T23:56:38.316Z,62.24
2018-09-29T23:59:06.879Z,65.73
